createdAt,value
2023-03-10T00:00:37.183Z,6.31
2023-03-10T00:03:04.223Z,5.13
2023-03-10T00:05:31.300Z,3.80
2023-03-10T00:07:58.218Z,3.40
2023-03-10T00:10:25.255Z,5.28
2023-03-10T00:12:52.066Z,5.20
2023-03-10T00:15:18.956Z,4.02
2023-03-10T00:17:45.806Z,3.57
2023-03-10T00:20:13.274Z,5.38
2023-03-10T00:22:41.932Z,5.00
2023-03-10T00:25:09.954Z,3.94
2023-03-10T00:27:36.850Z,4.16
2023-03-10T00:30:05.108Z,6.18
2023-03-10T00:32:37.171Z,6.44
2023-03-10T00:35:05.369Z,4.80
2023-03-10T00:37:32.259Z,3.62
2023-03-10T00:39:59.160Z,4.42
2023-03-10T00:42:27.305Z,6.16
2023-03-10T00:44:54.263Z,5.26
2023-03-10T00:47:22.829Z,3.92
2023-03-10T00:49:50.834Z,3.41
2023-03-10T00:52:17.931Z,5.32
2023-03-10T00:54:44.796Z,6.10
2023-03-10T00:57:11.618Z,4.73
2023-03-10T00:59:49.916Z,3.59
2023-03-10T01:02:19.590Z,5.26
2023-03-10T01:04:47.479Z,5.80
2023-03-10T01:07:14.440Z,4.21
2023-03-10T01:09:42.103Z,3.72
2023-03-10T01:12:09.281Z,5.75
2023-03-10T01:14:36.270Z,5.46
2023-03-10T01:17:05.621Z,4.03
2023-03-10T01:19:32.840Z,4.62
2023-03-10T01:22:01.072Z,5.94
2023-03-10T01:24:28.138Z,4.88
2023-03-10T01:26:55.051Z,3.91
2023-03-10T01:29:21.945Z,5.20
2023-03-10T01:31:48.954Z,6.39
2023-03-10T01:34:15.817Z,5.36
2023-03-10T01:36:42.701Z,4.04
2023-03-10T01:39:09.583Z,5.04
2023-03-10T01:41:41.436Z,6.43
2023-03-10T01:44:20.545Z,5.13
2023-03-10T01:46:53.408Z,4.48
2023-03-10T01:49:42.316Z,6.50
2023-03-10T01:52:20.321Z,6.25
2023-03-10T01:54:56.908Z,4.68
2023-03-10T01:57:29.276Z,5.08
2023-03-10T01:59:58.324Z,6.52
2023-03-10T02:02:26.482Z,5.89
2023-03-10T02:04:54.589Z,4.55
2023-03-10T02:07:26.576Z,5.28
2023-03-10T02:09:56.155Z,6.72
2023-03-10T02:12:24.034Z,5.61
2023-03-10T02:14:52.865Z,4.64
2023-03-10T02:17:23.158Z,5.98
2023-03-10T02:20:08.470Z,7.08
2023-03-10T02:22:37.021Z,5.44
2023-03-10T02:25:14.629Z,4.51
2023-03-10T02:27:41.678Z,6.41
2023-03-10T02:30:13.265Z,6.68
2023-03-10T02:32:44.635Z,5.21
2023-03-10T02:35:11.842Z,4.84
2023-03-10T02:37:46.187Z,6.62
2023-03-10T02:40:34.125Z,6.68
2023-03-10T02:43:12.185Z,4.83
2023-03-10T02:45:42.808Z,5.23
2023-03-10T02:48:13.497Z,6.66
2023-03-10T02:50:44.809Z,5.54
2023-03-10T02:53:16.419Z,4.47
2023-03-10T02:55:43.356Z,5.85
2023-03-10T02:58:10.366Z,7.11
2023-03-10T03:00:39.942Z,5.85
2023-03-10T03:03:08.306Z,4.50
2023-03-10T03:05:35.475Z,5.78
2023-03-10T03:08:03.369Z,7.18
2023-03-10T03:10:31.346Z,5.95
2023-03-10T03:12:58.280Z,4.76
2023-03-10T03:18:08.462Z,7.31
2023-03-10T03:20:37.832Z,6.72
2023-03-10T03:23:05.860Z,5.22
2023-03-10T03:25:37.046Z,5.26
2023-03-10T03:28:05.655Z,7.03
2023-03-10T03:30:33.085Z,7.18
2023-03-10T03:33:02.182Z,5.66
2023-03-10T03:35:35.196Z,5.07
2023-03-10T03:38:03.003Z,6.62
2023-03-10T03:40:33.769Z,6.79
2023-03-10T03:43:02.239Z,5.20
2023-03-10T03:45:32.240Z,4.93
2023-03-10T03:48:00.177Z,6.72
2023-03-10T03:50:27.556Z,7.54
2023-03-10T03:52:57.166Z,6.01
2023-03-10T03:55:26.821Z,4.84
2023-03-10T03:57:53.624Z,6.29
2023-03-10T04:00:23.117Z,6.73
2023-03-10T04:02:53.637Z,5.20
2023-03-10T04:05:20.624Z,5.22
2023-03-10T04:07:49.942Z,6.97
2023-03-10T04:10:20.136Z,6.51
2023-03-10T04:12:47.584Z,4.93
2023-03-10T04:15:15.188Z,4.92
2023-03-10T04:17:42.354Z,6.96
2023-03-10T04:20:10.948Z,7.00
2023-03-10T04:22:39.425Z,5.32
2023-03-10T04:25:08.251Z,5.20
2023-03-10T04:27:36.104Z,7.13
2023-03-10T04:30:04.540Z,7.24
2023-03-10T04:32:32.596Z,5.39
2023-03-10T04:35:01.123Z,5.19
2023-03-10T04:37:28.125Z,7.09
2023-03-10T04:39:55.751Z,6.68
2023-03-10T04:42:23.490Z,5.16
2023-03-10T04:44:52.156Z,6.20
2023-03-10T04:47:19.544Z,7.22
2023-03-10T04:49:46.494Z,5.81
2023-03-10T04:52:14.518Z,5.14
2023-03-10T04:54:41.595Z,7.00
2023-03-10T04:57:10.587Z,7.21
2023-03-10T04:59:37.989Z,5.66
2023-03-10T05:02:05.534Z,5.59
2023-03-10T05:04:32.895Z,7.49
2023-03-10T05:06:59.981Z,7.42
2023-03-10T05:09:36.493Z,5.66
2023-03-10T05:12:04.939Z,5.68
2023-03-10T05:14:32.753Z,7.20
2023-03-10T05:16:59.854Z,7.51
2023-03-10T05:19:28.917Z,6.24
2023-03-10T05:21:56.958Z,5.65
2023-03-10T05:24:23.976Z,7.41
2023-03-10T05:26:50.889Z,7.25
2023-03-10T05:29:17.853Z,5.89
2023-03-10T05:31:48.878Z,7.25
2023-03-10T05:34:21.104Z,7.87
2023-03-10T05:36:48.138Z,6.24
2023-03-10T05:39:15.597Z,6.70
2023-03-10T05:41:44.608Z,7.99
2023-03-10T05:44:11.984Z,7.19
2023-03-10T05:46:39.038Z,5.91
2023-03-10T05:49:05.888Z,7.31
2023-03-10T05:51:33.076Z,8.05
2023-03-10T05:54:01.241Z,6.42
2023-03-10T05:56:28.995Z,6.30
2023-03-10T05:58:58.812Z,8.00
2023-03-10T06:01:30.013Z,7.01
2023-03-10T06:03:57.324Z,5.98
2023-03-10T06:06:24.559Z,7.88
2023-03-10T06:08:51.421Z,7.58
2023-03-10T06:11:18.689Z,6.22
2023-03-10T06:13:45.881Z,7.33
2023-03-10T06:16:12.953Z,8.16
2023-03-10T06:18:39.886Z,6.49
2023-03-10T06:21:09.088Z,6.90
2023-03-10T06:23:37.057Z,8.42
2023-03-10T06:26:11.548Z,7.02
2023-03-10T06:28:40.681Z,6.36
2023-03-10T06:31:12.893Z,8.21
2023-03-10T06:33:39.822Z,7.56
2023-03-10T06:36:08.628Z,6.35
2023-03-10T06:38:35.626Z,7.92
2023-03-10T06:41:03.045Z,8.10
2023-03-10T06:43:32.511Z,6.49
2023-03-10T06:45:59.729Z,7.38
2023-03-10T06:48:26.604Z,8.40
2023-03-10T06:50:53.632Z,7.13
2023-03-10T06:53:21.772Z,6.47
2023-03-10T06:56:11.475Z,8.42
2023-03-10T06:58:39.153Z,7.44
2023-03-10T07:01:07.795Z,6.80
2023-03-10T07:03:36.148Z,8.45
2023-03-10T07:06:03.153Z,7.86
2023-03-10T07:08:30.359Z,6.63
2023-03-10T07:10:57.674Z,7.91
2023-03-10T07:13:24.768Z,8.82
2023-03-10T07:15:52.208Z,7.59
2023-03-10T07:18:19.383Z,6.93
2023-03-10T07:20:46.419Z,8.76
2023-03-10T07:23:14.400Z,8.76
2023-03-10T07:25:41.305Z,7.20
2023-03-10T07:28:08.660Z,7.24
2023-03-10T07:30:36.799Z,9.01
2023-03-10T07:33:04.256Z,8.20
2023-03-10T07:35:31.283Z,7.22
2023-03-10T07:37:58.185Z,8.78
2023-03-10T07:40:25.380Z,8.91
2023-03-10T07:42:54.972Z,7.40
2023-03-10T07:45:23.243Z,7.98
2023-03-10T07:47:51.897Z,9.47
2023-03-10T07:50:19.952Z,8.52
2023-03-10T07:52:47.609Z,7.54
2023-03-10T07:55:14.547Z,8.64
2023-03-10T07:57:41.944Z,9.58
2023-03-10T08:00:09.485Z,8.06
2023-03-10T08:02:39.861Z,7.92
2023-03-10T08:05:10.410Z,9.52
2023-03-10T08:07:38.147Z,8.63
2023-03-10T08:10:05.738Z,7.54
2023-03-10T08:12:33.090Z,9.19
2023-03-10T08:15:00.160Z,9.44
2023-03-10T08:17:31.078Z,8.10
2023-03-10T08:19:59.048Z,8.66
2023-03-10T08:22:26.909Z,10.21
2023-03-10T08:24:54.366Z,9.04
2023-03-10T08:27:21.847Z,8.05
2023-03-10T08:29:48.833Z,9.49
2023-03-10T08:32:15.797Z,9.47
2023-03-10T08:34:43.331Z,8.16
2023-03-10T08:37:11.328Z,8.78
2023-03-10T08:39:39.292Z,10.30
2023-03-10T08:42:06.886Z,9.46
2023-03-10T08:44:34.455Z,8.25
2023-03-10T08:47:01.578Z,9.45
2023-03-10T08:49:28.980Z,9.87
2023-03-10T08:51:56.067Z,8.40
2023-03-10T08:54:23.682Z,9.03
2023-03-10T08:56:50.918Z,10.43
2023-03-10T08:59:19.524Z,9.17
2023-03-10T09:01:46.883Z,9.62
2023-03-10T09:04:14.094Z,11.03
2023-03-10T09:06:41.008Z,10.03
2023-03-10T09:09:10.336Z,9.22
2023-03-10T09:11:39.345Z,10.23
2023-03-10T09:14:07.878Z,11.73
2023-03-10T09:16:35.001Z,11.13
2023-03-10T09:19:02.417Z,9.75
2023-03-10T09:21:33.408Z,9.44
2023-03-10T09:24:00.958Z,11.40
2023-03-10T09:26:27.978Z,11.65
2023-03-10T09:28:56.962Z,10.03
2023-03-10T09:31:29.888Z,9.61
2023-03-10T09:33:56.934Z,11.45
2023-03-10T09:36:24.221Z,11.33
2023-03-10T09:38:51.148Z,9.80
2023-03-10T09:41:49.129Z,10.26
2023-03-10T09:44:31.668Z,11.52
2023-03-10T09:47:10.983Z,10.07
2023-03-10T09:49:44.054Z,10.03
2023-03-10T09:52:33.958Z,11.75
2023-03-10T09:55:06.437Z,10.93
2023-03-10T09:57:34.870Z,9.90
2023-03-10T10:00:08.505Z,11.55
2023-03-10T10:02:43.499Z,11.49
2023-03-10T10:05:33.060Z,10.21
2023-03-10T10:08:03.907Z,11.32
2023-03-10T10:10:36.732Z,12.13
2023-03-10T10:13:13.596Z,10.78
2023-03-10T10:15:46.109Z,10.85
2023-03-10T10:18:27.027Z,12.18
2023-03-10T10:20:59.539Z,11.73
2023-03-10T10:23:50.235Z,10.75
2023-03-10T10:26:23.682Z,12.03
2023-03-10T10:28:58.202Z,12.95
2023-03-10T10:31:28.474Z,11.60
2023-03-10T10:33:55.624Z,10.83
2023-03-10T10:36:25.350Z,12.31
2023-03-10T10:38:54.641Z,12.92
2023-03-10T10:41:29.756Z,11.47
2023-03-10T10:44:00.351Z,10.71
2023-03-10T10:46:29.858Z,12.29
2023-03-10T10:49:18.342Z,12.54
2023-03-10T10:52:03.938Z,10.98
2023-03-10T10:54:43.914Z,11.74
2023-03-10T10:57:46.180Z,13.09
2023-03-10T11:00:27.392Z,12.06
2023-03-10T11:02:54.653Z,11.75
2023-03-10T11:05:33.875Z,13.40
2023-03-10T11:08:27.924Z,13.23
2023-03-10T11:11:21.335Z,11.68
2023-03-10T11:13:57.243Z,12.24
2023-03-10T11:16:36.231Z,13.62
2023-03-10T11:19:26.152Z,12.72
2023-03-10T11:21:55.127Z,11.67
2023-03-10T11:24:39.944Z,12.78
2023-03-10T11:27:32.845Z,14.03
2023-03-10T11:30:13.952Z,12.68
2023-03-10T11:32:45.876Z,12.17
2023-03-10T11:35:46.117Z,14.03
2023-03-10T11:38:31.527Z,13.80
2023-03-10T11:41:04.441Z,12.64
2023-03-10T11:43:45.292Z,12.74
2023-03-10T11:46:22.572Z,14.44
2023-03-10T11:48:59.652Z,13.88
2023-03-10T11:51:35.328Z,12.79
2023-03-10T11:54:12.365Z,13.50
2023-03-10T11:56:40.959Z,14.73
2023-03-10T11:59:28.134Z,14.01
2023-03-10T12:02:05.391Z,13.04
2023-03-10T12:04:42.607Z,13.97
2023-03-10T12:07:21.781Z,14.80
2023-03-10T12:09:54.991Z,13.77
2023-03-10T12:12:29.357Z,13.44
2023-03-10T12:14:59.720Z,15.22
2023-03-10T12:17:27.787Z,15.06
2023-03-10T12:20:14.706Z,14.37
2023-03-10T12:22:46.877Z,13.89
2023-03-10T12:25:30.212Z,13.54
2023-03-10T12:28:13.648Z,13.65
2023-03-10T12:30:51.768Z,15.46
2023-03-10T12:33:53.228Z,15.48
2023-03-10T12:36:39.635Z,15.02
2023-03-10T12:39:45.086Z,14.66
2023-03-10T12:42:35.419Z,14.42
2023-03-10T12:45:30.028Z,14.32
2023-03-10T12:48:11.970Z,14.22
2023-03-10T12:50:56.620Z,14.05
2023-03-10T12:53:44.825Z,13.86
2023-03-10T12:56:39.291Z,13.83
2023-03-10T12:59:36.373Z,14.07
2023-03-10T13:02:46.343Z,14.33
2023-03-10T13:05:55.368Z,14.41
2023-03-10T13:08:49.524Z,14.34
2023-03-10T13:12:10.637Z,14.22
2023-03-10T13:14:43.424Z,13.99
2023-03-10T13:17:33.349Z,13.90
2023-03-10T13:20:15.234Z,13.97
2023-03-10T13:22:58.399Z,14.11
2023-03-10T13:25:27.699Z,14.21
2023-03-10T13:27:57.694Z,14.25
2023-03-10T13:30:28.268Z,14.28
2023-03-10T13:40:30.483Z,14.52
2023-03-10T13:42:57.740Z,14.66
2023-03-10T13:45:34.145Z,14.73
2023-03-10T13:48:05.164Z,14.69
2023-03-10T13:50:32.916Z,14.58
2023-03-10T13:53:00.444Z,14.46
2023-03-10T13:55:28.756Z,14.34
2023-03-10T13:57:56.940Z,14.21
2023-03-10T14:00:26.175Z,14.08
2023-03-10T14:02:54.129Z,13.99
2023-03-10T14:05:38.408Z,13.90
2023-03-10T14:08:06.140Z,13.81
2023-03-10T14:10:33.532Z,13.74
2023-03-10T14:13:00.658Z,13.69
2023-03-10T14:15:39.076Z,13.61
2023-03-10T14:18:09.402Z,13.56
2023-03-10T14:20:39.231Z,13.53
2023-03-10T14:23:18.474Z,13.50
2023-03-10T14:25:47.303Z,13.47
2023-03-10T14:28:24.238Z,13.41
2023-03-10T14:30:51.525Z,13.96
2023-03-10T14:33:19.268Z,15.70
2023-03-10T14:35:46.819Z,15.73
2023-03-10T14:38:13.969Z,15.14
2023-03-10T14:40:44.863Z,14.64
2023-03-10T14:43:19.103Z,14.26
2023-03-10T14:45:48.954Z,13.98
2023-03-10T14:48:20.348Z,13.75
2023-03-10T14:50:48.042Z,13.60
2023-03-10T14:53:19.082Z,13.48
2023-03-10T14:55:48.501Z,13.39
2023-03-10T14:58:20.182Z,13.32
2023-03-10T15:00:47.916Z,13.75
2023-03-10T15:03:15.451Z,15.45
2023-03-10T15:05:48.786Z,15.63
2023-03-10T15:08:19.099Z,15.08
2023-03-10T15:10:50.724Z,14.59
2023-03-10T15:13:20.063Z,14.28
2023-03-10T15:15:48.562Z,14.07
2023-03-10T15:18:19.076Z,13.88
2023-03-10T15:20:46.976Z,13.71
2023-03-10T15:23:17.629Z,13.57
2023-03-10T15:25:46.349Z,13.42
2023-03-10T15:28:14.289Z,13.28
2023-03-10T15:30:41.747Z,13.15
2023-03-10T15:33:08.973Z,13.03
2023-03-10T15:35:36.060Z,12.93
2023-03-10T15:38:03.917Z,13.28
2023-03-10T15:40:34.075Z,15.13
2023-03-10T15:43:01.206Z,16.33
2023-03-10T15:45:30.299Z,15.85
2023-03-10T15:48:01.417Z,15.05
2023-03-10T15:50:28.453Z,14.41
2023-03-10T15:52:57.962Z,13.96
2023-03-10T15:55:27.095Z,13.60
2023-03-10T15:57:54.958Z,13.31
2023-03-10T16:00:23.881Z,13.06
2023-03-10T16:02:51.845Z,12.85
2023-03-10T16:05:19.590Z,12.67
2023-03-10T16:07:46.865Z,12.89
2023-03-10T16:10:17.180Z,14.60
2023-03-10T16:12:44.575Z,15.47
2023-03-10T16:15:12.558Z,14.80
2023-03-10T16:17:40.392Z,14.05
2023-03-10T16:20:12.331Z,13.50
2023-03-10T16:22:41.520Z,13.05
2023-03-10T16:25:12.313Z,12.71
2023-03-10T16:27:39.284Z,12.81
2023-03-10T16:30:08.213Z,14.37
2023-03-10T16:32:36.065Z,15.58
2023-03-10T16:35:03.254Z,15.07
2023-03-10T16:37:30.122Z,14.25
2023-03-10T16:39:58.209Z,13.60
2023-03-10T16:42:26.595Z,13.11
2023-03-10T16:44:57.038Z,12.74
2023-03-10T16:47:24.498Z,12.45
2023-03-10T16:49:51.546Z,12.23
2023-03-10T16:52:18.392Z,12.42
2023-03-10T16:54:46.848Z,14.11
2023-03-10T16:57:15.404Z,15.32
2023-03-10T16:59:44.793Z,14.80
2023-03-10T17:02:16.400Z,13.97
2023-03-10T17:04:43.571Z,13.31
2023-03-10T17:07:10.730Z,12.84
2023-03-10T17:09:38.290Z,12.47
2023-03-10T17:12:05.683Z,12.17
2023-03-10T17:14:32.988Z,12.54
2023-03-10T17:17:01.700Z,14.46
2023-03-10T17:19:31.860Z,15.21
2023-03-10T17:21:59.137Z,14.34
2023-03-10T17:24:27.105Z,13.41
2023-03-10T17:26:54.145Z,12.73
2023-03-10T17:29:21.215Z,12.22
2023-03-10T17:31:51.901Z,12.31
2023-03-10T17:34:19.612Z,14.19
2023-03-10T17:36:49.269Z,15.27
2023-03-10T17:39:19.951Z,14.54
2023-03-10T17:41:47.684Z,13.52
2023-03-10T17:44:15.481Z,12.79
2023-03-10T17:46:42.481Z,12.25
2023-03-10T17:49:14.340Z,11.78
2023-03-10T17:51:44.973Z,12.01
2023-03-10T17:54:14.019Z,14.07
2023-03-10T17:56:41.472Z,15.29
2023-03-10T17:59:10.742Z,14.46
2023-03-10T18:01:37.570Z,13.33
2023-03-10T18:04:04.489Z,12.49
2023-03-10T18:06:33.825Z,11.88
2023-03-10T18:09:04.903Z,11.99
2023-03-10T18:11:32.777Z,13.98
2023-03-10T18:14:01.765Z,15.09
2023-03-10T18:16:34.127Z,14.24
2023-03-10T18:19:01.551Z,13.11
2023-03-10T18:21:28.683Z,12.21
2023-03-10T18:23:56.175Z,11.95
2023-03-10T18:26:26.329Z,13.53
2023-03-10T18:28:53.607Z,14.67
2023-03-10T18:31:24.024Z,13.92
2023-03-10T18:33:51.231Z,12.87
2023-03-10T18:36:19.681Z,12.08
2023-03-10T18:38:48.154Z,11.48
2023-03-10T18:41:19.447Z,11.40
2023-03-10T18:43:46.713Z,12.93
2023-03-10T18:46:13.645Z,14.01
2023-03-10T18:48:40.465Z,13.42
2023-03-10T18:51:07.515Z,12.47
2023-03-10T18:53:34.891Z,11.74
2023-03-10T18:56:02.438Z,11.57
2023-03-10T18:58:30.473Z,13.02
2023-03-10T19:00:59.417Z,14.16
2023-03-10T19:03:31.708Z,13.57
2023-03-10T19:05:58.845Z,12.64
2023-03-10T19:08:27.371Z,11.89
2023-03-10T19:10:59.353Z,11.33
2023-03-10T19:13:28.885Z,11.34
2023-03-10T19:15:56.826Z,13.00
2023-03-10T19:18:24.599Z,14.17
2023-03-10T19:20:51.624Z,13.44
2023-03-10T19:23:18.959Z,12.30
2023-03-10T19:25:46.031Z,11.41
2023-03-10T19:28:13.251Z,11.24
2023-03-10T19:30:43.102Z,12.79
2023-03-10T19:33:11.706Z,13.78
2023-03-10T19:35:39.132Z,13.03
2023-03-10T19:38:06.940Z,11.94
2023-03-10T19:40:34.700Z,11.17
2023-03-10T19:43:01.625Z,11.82
2023-03-10T19:45:29.052Z,13.31
2023-03-10T19:47:58.095Z,13.93
2023-03-10T19:50:26.058Z,12.95
2023-03-10T19:52:53.639Z,11.78
2023-03-10T19:55:23.565Z,10.90
2023-03-10T19:57:53.441Z,10.72
2023-03-10T20:00:25.788Z,12.26
2023-03-10T20:02:54.708Z,13.27
2023-03-10T20:05:22.700Z,12.54
2023-03-10T20:07:49.756Z,11.46
2023-03-10T20:10:18.232Z,10.61
2023-03-10T20:12:47.418Z,10.42
2023-03-10T20:15:14.891Z,11.89
2023-03-10T20:17:42.159Z,13.31
2023-03-10T20:20:11.297Z,13.78
2023-03-10T20:22:40.315Z,12.70
2023-03-10T20:25:10.060Z,11.51
2023-03-10T20:27:37.576Z,10.59
2023-03-10T20:30:13.457Z,10.34
2023-03-10T20:32:40.526Z,11.87
2023-03-10T20:35:08.018Z,13.09
2023-03-10T20:37:36.211Z,13.43
2023-03-10T20:40:12.348Z,12.43
2023-03-10T20:42:39.810Z,11.29
2023-03-10T20:45:09.170Z,10.48
2023-03-10T20:47:36.075Z,10.35
2023-03-10T20:50:04.418Z,11.83
2023-03-10T20:52:35.497Z,13.24
2023-03-10T20:55:03.725Z,13.49
2023-03-10T20:57:32.222Z,12.40
2023-03-10T20:59:59.999Z,11.39
2023-03-10T21:02:27.111Z,12.27
2023-03-10T21:04:56.075Z,13.49
2023-03-10T21:07:23.132Z,12.78
2023-03-10T21:09:50.049Z,11.68
2023-03-10T21:12:18.885Z,12.20
2023-03-10T21:14:46.254Z,13.70
2023-03-10T21:17:13.893Z,14.12
2023-03-10T21:19:40.905Z,12.90
2023-03-10T21:22:08.090Z,12.13
2023-03-10T21:24:35.150Z,13.42
2023-03-10T21:27:02.306Z,14.16
2023-03-10T21:29:29.237Z,13.20
2023-03-10T21:31:56.504Z,12.26
2023-03-10T21:34:23.453Z,13.32
2023-03-10T21:36:50.471Z,14.19
2023-03-10T21:39:17.864Z,13.25
2023-03-10T21:41:45.199Z,12.25
2023-03-10T21:44:12.993Z,13.21
2023-03-10T21:46:39.994Z,14.09
2023-03-10T21:49:07.722Z,13.13
2023-03-10T21:51:35.720Z,12.31
2023-03-10T21:54:03.861Z,13.46
2023-03-10T21:56:31.568Z,14.14
2023-03-10T21:58:58.440Z,13.07
2023-03-10T22:01:28.947Z,12.24
2023-03-10T22:03:56.409Z,13.23
2023-03-10T22:06:23.646Z,14.27
2023-03-10T22:08:51.285Z,13.32
2023-03-10T22:11:19.259Z,12.32
2023-03-10T22:13:46.790Z,13.18
2023-03-10T22:16:18.181Z,14.25
2023-03-10T22:18:46.348Z,13.54
2023-03-10T22:21:13.453Z,12.43
2023-03-10T22:23:40.689Z,13.03
2023-03-10T22:26:08.273Z,14.29
2023-03-10T22:28:35.635Z,13.53
2023-03-10T22:31:06.698Z,12.48
2023-03-10T22:33:34.558Z,13.19
2023-03-10T22:36:10.198Z,14.37
2023-03-10T22:38:37.598Z,13.64
2023-03-10T22:41:10.106Z,12.68
2023-03-10T22:43:37.307Z,13.53
2023-03-10T22:46:12.185Z,14.34
2023-03-10T22:48:39.655Z,13.27
2023-03-10T22:51:12.990Z,12.55
2023-03-10T22:53:40.149Z,13.57
2023-03-10T22:56:07.418Z,14.70
2023-03-10T22:58:34.413Z,13.69
2023-03-10T23:01:01.717Z,12.70
2023-03-10T23:03:28.917Z,13.75
2023-03-10T23:05:58.729Z,14.50
2023-03-10T23:08:25.712Z,13.43
2023-03-10T23:10:53.646Z,12.92
2023-03-10T23:13:20.890Z,13.88
2023-03-10T23:15:48.251Z,14.54
2023-03-10T23:18:15.424Z,13.47
2023-03-10T23:20:50.518Z,12.99
2023-03-10T23:23:18.472Z,14.18
2023-03-10T23:25:47.962Z,14.41
2023-03-10T23:28:15.985Z,13.24
2023-03-10T23:30:45.362Z,13.19
2023-03-10T23:33:15.029Z,14.26
2023-03-10T23:35:42.249Z,14.46
2023-03-10T23:38:09.499Z,13.25
2023-03-10T23:40:37.377Z,13.16
2023-03-10T23:43:07.164Z,14.41
2023-03-10T23:45:36.892Z,14.43
2023-03-10T23:48:07.309Z,13.14
2023-03-10T23:50:39.777Z,13.32
2023-03-10T23:53:08.188Z,14.57
2023-03-10T23:55:37.921Z,13.85
2023-03-10T23:58:05.844Z,12.80
